Time;durP1;ratioP1;P1;durP2;ratioP2;P2;SDS_P1;SDS_P2;PMS_P1;PMS_P2;Temp;Humidity;BMP_temperature;BMP_pressure;BME280_temperature;BME280_humidity;BME280_pressure;Samples;Min_cycle;Max_cycle;Signal;HPM_P1;HPM_P2
2022/12/17 13:08:17;;;;;;;20.80;12.88;;;;;;;;;;4899489;29;20124;-58
2022/12/17 13:10:44;;;;;;;20.83;13.50;;;;;;;;;;4899932;29;20048;-60
2022/12/17 13:13:10;;;;;;;19.73;12.20;;;;;;;;;;4899371;29;20324;-59
2022/12/17 13:15:39;;;;;;;19.50;12.27;;;;;;;;;;4882338;29;20044;-58
2022/12/17 13:18:39;;;;;;;16.85;10.70;;;;;;;;;;4899410;29;20048;-59
2022/12/17 13:21:15;;;;;;;20.58;12.30;;;;;;;;;;4853076;29;20053;-59
2022/12/17 13:23:42;;;;;;;18.08;11.43;;;;;;;;;;4900160;29;20049;-61
2022/12/17 13:26:13;;;;;;;22.05;12.55;;;;;;;;;;4883236;29;20053;-57
2022/12/17 13:28:40;;;;;;;19.65;12.40;;;;;;;;;;4900534;29;20044;-59
2022/12/17 13:31:21;;;;;;;20.98;12.18;;;;;;;;;;4883378;29;20041;-58
2022/12/17 13:34:00;;;;;;;22.77;13.05;;;;;;;;;;4899702;29;20512;-58
2022/12/17 13:36:26;;;;;;;21.45;13.18;;;;;;;;;;4899036;29;20052;-58
2022/12/17 13:39:01;;;;;;;25.58;14.15;;;;;;;;;;4899847;29;20040;-58
2022/12/17 13:41:32;;;;;;;23.98;13.50;;;;;;;;;;4899504;29;20044;-61
2022/12/17 13:44:01;;;;;;;24.67;13.20;;;;;;;;;;4898715;29;20060;-60
2022/12/17 13:46:33;;;;;;;20.35;13.25;;;;;;;;;;4881320;29;20096;-60
2022/12/17 13:49:01;;;;;;;24.23;13.93;;;;;;;;;;4898868;29;20060;-60
2022/12/17 13:51:29;;;;;;;23.08;13.57;;;;;;;;;;4898718;29;20073;-61
2022/12/17 13:53:57;;;;;;;25.90;13.40;;;;;;;;;;4898868;29;20056;-60
2022/12/17 13:56:25;;;;;;;25.27;14.68;;;;;;;;;;4884814;29;20052;-59
2022/12/17 13:58:53;;;;;;;25.90;14.07;;;;;;;;;;4890711;29;20065;-58
2022/12/17 14:01:19;;;;;;;29.23;14.65;;;;;;;;;;4904430;29;20048;-60
2022/12/17 14:03:51;;;;;;;26.70;14.38;;;;;;;;;;4898626;29;20399;-60
2022/12/17 14:06:36;;;;;;;25.77;14.82;;;;;;;;;;4881300;29;20076;-60
2022/12/17 14:09:04;;;;;;;28.05;14.73;;;;;;;;;;4898262;29;20040;-61
2022/12/17 14:14:25;;;;;;;25.67;15.50;;;;;;;;;;4898196;29;20553;-60
2022/12/17 14:16:52;;;;;;;26.02;14.48;;;;;;;;;;4897493;29;20111;-60
2022/12/17 14:19:18;;;;;;;26.73;15.45;;;;;;;;;;4898219;29;20116;-61
2022/12/17 14:21:44;;;;;;;27.17;15.57;;;;;;;;;;4897804;29;20048;-60
2022/12/17 14:24:12;;;;;;;26.10;14.98;;;;;;;;;;4897887;29;20040;-61
2022/12/17 14:26:52;;;;;;;25.98;14.90;;;;;;;;;;4897506;29;20131;-60
2022/12/17 14:29:26;;;;;;;26.80;15.32;;;;;;;;;;4897841;29;20498;-61
2022/12/17 14:31:55;;;;;;;45.47;23.80;;;;;;;;;;4897892;29;20056;-59
2022/12/17 14:34:21;;;;;;;40.63;21.67;;;;;;;;;;4897699;29;20052;-60
2022/12/17 14:36:52;;;;;;;31.50;17.58;;;;;;;;;;4880670;29;20085;-61
2022/12/17 14:39:22;;;;;;;28.83;16.88;;;;;;;;;;4897383;29;20060;-60
2022/12/17 14:44:37;;;;;;;32.30;16.88;;;;;;;;;;4897967;29;20474;-63
2022/12/17 14:47:07;;;;;;;32.10;17.90;;;;;;;;;;4896922;29;20561;-60
2022/12/17 14:49:33;;;;;;;38.95;19.45;;;;;;;;;;4897545;29;20497;-60
2022/12/17 14:52:10;;;;;;;34.13;18.00;;;;;;;;;;4897309;29;20092;-60
2022/12/17 14:54:43;;;;;;;33.70;18.17;;;;;;;;;;4897726;29;20052;-60
2022/12/17 14:57:17;;;;;;;31.67;16.92;;;;;;;;;;4896948;29;20056;-61
2022/12/17 14:59:44;;;;;;;31.70;17.40;;;;;;;;;;4897596;29;20052;-60
2022/12/17 15:02:17;;;;;;;30.27;16.65;;;;;;;;;;4897160;29;20569;-61
2022/12/17 15:04:44;;;;;;;30.92;17.92;;;;;;;;;;4880690;29;20045;-59
2022/12/17 15:07:13;;;;;;;35.85;18.20;;;;;;;;;;4896913;29;20429;-59
2022/12/17 15:09:43;;;;;;;35.88;17.73;;;;;;;;;;4897681;29;20108;-60
2022/12/17 15:12:10;;;;;;;30.45;18.20;;;;;;;;;;4881423;29;20439;-59
2022/12/17 15:14:36;;;;;;;38.58;18.42;;;;;;;;;;4897735;29;20506;-59
2022/12/17 15:17:03;;;;;;;43.95;23.10;;;;;;;;;;4897430;29;20119;-59
2022/12/17 15:19:29;;;;;;;32.80;16.85;;;;;;;;;;4897912;29;20088;-60
2022/12/17 15:21:55;;;;;;;30.92;17.35;;;;;;;;;;4897485;29;20052;-60
2022/12/17 15:24:22;;;;;;;35.92;18.50;;;;;;;;;;4896969;29;20100;-60
2022/12/17 15:26:49;;;;;;;30.45;17.10;;;;;;;;;;4896664;29;20458;-61
2022/12/17 15:29:15;;;;;;;33.05;17.63;;;;;;;;;;4897244;29;20056;-60
2022/12/17 15:31:41;;;;;;;33.08;17.83;;;;;;;;;;4880598;29;20044;-58
2022/12/17 15:34:09;;;;;;;33.45;17.50;;;;;;;;;;4897673;29;20061;-57
2022/12/17 15:36:36;;;;;;;36.70;18.15;;;;;;;;;;4896656;29;20044;-56
2022/12/17 15:39:05;;;;;;;32.92;17.77;;;;;;;;;;4897180;29;20466;-56
2022/12/17 15:44:16;;;;;;;33.58;17.33;;;;;;;;;;4896746;29;20040;-58
2022/12/17 15:46:43;;;;;;;32.25;17.13;;;;;;;;;;4896361;29;20401;-59
2022/12/17 15:49:09;;;;;;;28.45;16.70;;;;;;;;;;4896644;29;20037;-58
2022/12/17 15:51:35;;;;;;;32.42;17.63;;;;;;;;;;4898131;29;20052;-60
2022/12/17 15:54:02;;;;;;;32.80;18.10;;;;;;;;;;4884142;29;20085;-59
2022/12/17 15:56:28;;;;;;;31.23;17.73;;;;;;;;;;4900118;29;20048;-60
2022/12/17 15:58:56;;;;;;;33.95;18.05;;;;;;;;;;4900472;29;20049;-60
2022/12/17 16:01:23;;;;;;;32.88;18.02;;;;;;;;;;4883392;29;20049;-60
2022/12/17 16:03:49;;;;;;;38.20;18.85;;;;;;;;;;4900299;29;20076;-59
2022/12/17 16:06:15;;;;;;;34.75;16.42;;;;;;;;;;4899847;29;20107;-60
2022/12/17 16:08:42;;;;;;;30.45;17.55;;;;;;;;;;4900263;29;20420;-60
2022/12/17 16:11:09;;;;;;;31.35;16.58;;;;;;;;;;4900392;29;20108;-60
2022/12/17 16:13:36;;;;;;;36.95;18.25;;;;;;;;;;4900362;29;20108;-60
2022/12/17 16:16:03;;;;;;;35.10;18.25;;;;;;;;;;4883400;29;20063;-60
2022/12/17 16:18:30;;;;;;;31.02;17.48;;;;;;;;;;4900353;29;20379;-60
2022/12/17 16:21:00;;;;;;;36.05;19.35;;;;;;;;;;4900413;29;20116;-60
2022/12/17 16:23:26;;;;;;;33.35;18.40;;;;;;;;;;4900038;29;20037;-59
2022/12/17 16:26:00;;;;;;;35.90;18.77;;;;;;;;;;4900694;29;20075;-60
2022/12/17 16:28:27;;;;;;;36.30;18.80;;;;;;;;;;4901106;29;20053;-59
2022/12/17 16:31:07;;;;;;;31.83;17.17;;;;;;;;;;4901375;29;20045;-61
2022/12/17 16:33:35;;;;;;;35.53;18.20;;;;;;;;;;4903411;29;20493;-59
2022/12/17 16:36:02;;;;;;;36.35;18.73;;;;;;;;;;4871299;29;20053;-60
2022/12/17 16:38:29;;;;;;;37.80;18.73;;;;;;;;;;4905192;29;20048;-59
2022/12/17 16:40:56;;;;;;;35.13;17.95;;;;;;;;;;4890375;29;20501;-59
2022/12/17 16:43:22;;;;;;;38.13;18.42;;;;;;;;;;4909814;29;20044;-59
2022/12/17 16:45:49;;;;;;;37.53;19.13;;;;;;;;;;4895176;29;20052;-59
2022/12/17 16:48:16;;;;;;;37.67;19.20;;;;;;;;;;4912204;29;20048;-61
2022/12/17 16:50:43;;;;;;;37.72;18.02;;;;;;;;;;4891454;29;20471;-59
2022/12/17 16:53:10;;;;;;;36.35;18.25;;;;;;;;;;4909019;29;20104;-57
2022/12/17 16:55:44;;;;;;;37.30;18.83;;;;;;;;;;4908798;29;20044;-58
2022/12/17 16:58:10;;;;;;;34.42;18.25;;;;;;;;;;4908440;29;20044;-59
2022/12/17 17:00:37;;;;;;;34.92;18.65;;;;;;;;;;4907373;29;20048;-59
2022/12/17 17:03:04;;;;;;;37.97;19.15;;;;;;;;;;4891112;29;20108;-60
2022/12/17 17:05:31;;;;;;;37.17;18.63;;;;;;;;;;4906312;29;20104;-60
2022/12/17 17:07:58;;;;;;;36.90;19.25;;;;;;;;;;4907405;29;20063;-59
2022/12/17 17:10:24;;;;;;;38.72;19.05;;;;;;;;;;4905371;29;20044;-59
2022/12/17 17:12:51;;;;;;;34.90;19.05;;;;;;;;;;4908129;29;20044;-58
2022/12/17 17:15:18;;;;;;;36.72;19.02;;;;;;;;;;4906432;29;20126;-58
2022/12/17 17:17:44;;;;;;;36.83;19.02;;;;;;;;;;4907046;29;20056;-56
2022/12/17 17:20:21;;;;;;;39.65;19.92;;;;;;;;;;4906384;29;20589;-58
2022/12/17 17:22:47;;;;;;;39.45;18.30;;;;;;;;;;4905228;29;20053;-57
2022/12/17 17:25:14;;;;;;;38.47;19.17;;;;;;;;;;4904758;29;20048;-57
2022/12/17 17:27:40;;;;;;;37.90;18.42;;;;;;;;;;4903012;29;20048;-58
2022/12/17 17:30:07;;;;;;;41.90;19.27;;;;;;;;;;4902589;29;20060;-59
2022/12/17 17:32:34;;;;;;;38.85;19.88;;;;;;;;;;4902594;29;20041;-57
2022/12/17 17:35:00;;;;;;;37.45;18.30;;;;;;;;;;4885070;29;20339;-58
2022/12/17 17:37:26;;;;;;;37.15;19.52;;;;;;;;;;4900128;29;20081;-59
2022/12/17 17:39:53;;;;;;;43.05;20.95;;;;;;;;;;4899913;29;20063;-58
2022/12/17 17:42:19;;;;;;;40.88;19.35;;;;;;;;;;4900149;29;20064;-60
2022/12/17 17:44:47;;;;;;;39.33;20.50;;;;;;;;;;4900185;29;20055;-58
2022/12/17 17:47:13;;;;;;;39.05;19.35;;;;;;;;;;4900309;29;20052;-59
2022/12/17 17:49:40;;;;;;;41.70;19.33;;;;;;;;;;4883578;29;20089;-58
2022/12/17 17:52:06;;;;;;;39.65;20.50;;;;;;;;;;4900043;29;20045;-58
2022/12/17 17:54:38;;;;;;;38.72;19.23;;;;;;;;;;4900993;29;20040;-57
2022/12/17 17:57:04;;;;;;;35.13;18.90;;;;;;;;;;4883293;29;20048;-59
2022/12/17 17:59:31;;;;;;;39.70;19.95;;;;;;;;;;4899694;29;20053;-58
2022/12/17 18:02:00;;;;;;;39.40;18.95;;;;;;;;;;4899215;29;20093;-61
2022/12/17 18:04:27;;;;;;;36.80;17.65;;;;;;;;;;4883119;29;20132;-58
2022/12/17 18:06:54;;;;;;;37.95;18.30;;;;;;;;;;4901729;29;20048;-59
2022/12/17 18:09:40;;;;;;;36.20;18.25;;;;;;;;;;4901944;29;20045;-58
2022/12/17 18:14:52;;;;;;;37.97;17.50;;;;;;;;;;4882146;29;20048;-59
2022/12/17 18:17:38;;;;;;;36.22;19.55;;;;;;;;;;4869142;29;20041;-60
2022/12/17 18:20:05;;;;;;;37.70;18.70;;;;;;;;;;4898959;29;20405;-59
2022/12/17 18:22:31;;;;;;;41.25;19.50;;;;;;;;;;4882255;29;20422;-59
2022/12/17 18:24:58;;;;;;;37.13;18.42;;;;;;;;;;4898172;29;20803;-60
2022/12/17 18:27:24;;;;;;;35.42;18.25;;;;;;;;;;4898633;29;20077;-61
2022/12/17 18:29:51;;;;;;;36.67;18.02;;;;;;;;;;4898772;29;20048;-59
2022/12/17 18:32:18;;;;;;;41.78;21.08;;;;;;;;;;4898956;29;20059;-60
2022/12/17 18:34:44;;;;;;;39.33;19.13;;;;;;;;;;4898626;29;20052;-59
2022/12/17 18:37:11;;;;;;;38.55;19.90;;;;;;;;;;4880972;29;20056;-58
2022/12/17 18:39:37;;;;;;;35.45;19.20;;;;;;;;;;4881002;29;20545;-61
2022/12/17 18:44:49;;;;;;;44.42;21.08;;;;;;;;;;4898681;29;20044;-57
2022/12/17 18:47:15;;;;;;;40.38;19.60;;;;;;;;;;4881643;29;20052;-57
2022/12/17 18:49:42;;;;;;;36.30;19.98;;;;;;;;;;4898747;29;20135;-58
2022/12/17 18:52:08;;;;;;;41.15;20.10;;;;;;;;;;4898183;29;20040;-58
2022/12/17 18:54:42;;;;;;;43.90;20.08;;;;;;;;;;4868056;29;20075;-61
2022/12/17 18:57:08;;;;;;;37.88;19.13;;;;;;;;;;4897194;29;20108;-60
2022/12/17 18:59:35;;;;;;;40.53;20.73;;;;;;;;;;4897411;29;20334;-59
2022/12/17 19:02:01;;;;;;;44.00;19.38;;;;;;;;;;4897346;29;20144;-59
2022/12/17 19:04:28;;;;;;;40.05;18.50;;;;;;;;;;4897251;29;20410;-58
2022/12/17 19:06:54;;;;;;;40.13;21.55;;;;;;;;;;4880062;29;20410;-58
2022/12/17 19:09:22;;;;;;;37.58;17.95;;;;;;;;;;4880618;29;20044;-59
2022/12/17 19:11:49;;;;;;;46.05;23.25;;;;;;;;;;4880996;29;20477;-59
2022/12/17 19:14:16;;;;;;;43.38;21.42;;;;;;;;;;4897561;29;20045;-59
2022/12/17 19:16:43;;;;;;;41.95;20.20;;;;;;;;;;4896942;29;20044;-57
2022/12/17 19:19:10;;;;;;;43.30;20.73;;;;;;;;;;4897357;29;20045;-58
2022/12/17 19:21:37;;;;;;;39.10;20.25;;;;;;;;;;4897184;29;20052;-61
2022/12/17 19:24:04;;;;;;;41.65;19.85;;;;;;;;;;4897455;29;20048;-62
2022/12/17 19:26:33;;;;;;;36.75;18.83;;;;;;;;;;4896532;29;20049;-60
2022/12/17 19:29:01;;;;;;;39.22;19.67;;;;;;;;;;4897188;29;20047;-59
2022/12/17 19:31:28;;;;;;;39.95;19.48;;;;;;;;;;4880186;29;20056;-59
2022/12/17 19:33:56;;;;;;;42.78;21.33;;;;;;;;;;4897154;29;20446;-61
2022/12/17 19:36:23;;;;;;;41.28;19.80;;;;;;;;;;4896350;29;20048;-58
2022/12/17 19:38:59;;;;;;;41.88;19.40;;;;;;;;;;4896938;29;20044;-60
2022/12/17 19:41:26;;;;;;;38.63;19.80;;;;;;;;;;4896712;29;20048;-57
2022/12/17 19:43:57;;;;;;;35.80;19.00;;;;;;;;;;4880026;29;20056;-59
2022/12/17 19:46:24;;;;;;;43.15;19.65;;;;;;;;;;4896542;29;20081;-57
2022/12/17 19:48:51;;;;;;;40.53;19.05;;;;;;;;;;4896866;29;20040;-59
2022/12/17 19:51:22;;;;;;;42.03;21.08;;;;;;;;;;4897120;29;20462;-60
2022/12/17 19:53:49;;;;;;;40.67;20.10;;;;;;;;;;4880139;29;20048;-60
2022/12/17 19:56:17;;;;;;;38.35;19.45;;;;;;;;;;4896864;29;20048;-60
2022/12/17 19:58:44;;;;;;;37.45;18.63;;;;;;;;;;4896974;29;20053;-59
2022/12/17 20:01:12;;;;;;;41.40;19.92;;;;;;;;;;4897103;29;20041;-59
2022/12/17 20:03:40;;;;;;;39.28;18.05;;;;;;;;;;4879814;29;20466;-58
2022/12/17 20:06:07;;;;;;;39.20;18.33;;;;;;;;;;4896186;29;20044;-58
2022/12/17 20:08:34;;;;;;;41.67;19.48;;;;;;;;;;4880399;29;20045;-59
2022/12/17 20:11:02;;;;;;;44.55;20.65;;;;;;;;;;4897088;29;20041;-59
2022/12/17 20:13:29;;;;;;;46.22;20.48;;;;;;;;;;4896873;29;20045;-60
2022/12/17 20:15:59;;;;;;;43.47;20.88;;;;;;;;;;4896054;29;20048;-60
2022/12/17 20:18:26;;;;;;;43.78;20.80;;;;;;;;;;4896842;29;20048;-59
2022/12/17 20:20:59;;;;;;;43.58;19.73;;;;;;;;;;4896775;29;20454;-62
2022/12/17 20:23:25;;;;;;;45.30;20.87;;;;;;;;;;4896706;29;20573;-59
2022/12/17 20:26:02;;;;;;;44.67;19.95;;;;;;;;;;4896155;29;20127;-59
2022/12/17 20:28:29;;;;;;;41.00;18.65;;;;;;;;;;4896525;29;20040;-58
2022/12/17 20:30:55;;;;;;;40.63;19.98;;;;;;;;;;4896380;29;20044;-58
2022/12/17 20:33:23;;;;;;;44.55;19.40;;;;;;;;;;4879690;29;20053;-58
2022/12/17 20:35:50;;;;;;;44.08;19.98;;;;;;;;;;4896281;29;20112;-58
2022/12/17 20:38:17;;;;;;;47.65;20.88;;;;;;;;;;4898543;29;20096;-59
2022/12/17 20:40:43;;;;;;;46.55;22.42;;;;;;;;;;4899984;29;20052;-57
2022/12/17 20:43:09;;;;;;;42.28;21.30;;;;;;;;;;4899905;29;20101;-57
2022/12/17 20:45:36;;;;;;;46.85;21.40;;;;;;;;;;4899280;29;20048;-59
2022/12/17 20:48:03;;;;;;;43.08;19.55;;;;;;;;;;4883266;29;20387;-58
2022/12/17 20:50:29;;;;;;;44.17;21.58;;;;;;;;;;4883313;29;20060;-59
2022/12/17 20:52:57;;;;;;;44.22;21.13;;;;;;;;;;4883124;29;20450;-59
2022/12/17 20:55:23;;;;;;;41.33;21.52;;;;;;;;;;4867057;29;20052;-59
2022/12/17 20:57:56;;;;;;;43.90;21.45;;;;;;;;;;4899943;29;20051;-58
2022/12/17 21:00:22;;;;;;;43.28;21.08;;;;;;;;;;4899766;29;20487;-59
2022/12/17 21:02:49;;;;;;;42.20;19.88;;;;;;;;;;4899496;29;20052;-60
2022/12/17 21:05:16;;;;;;;43.00;19.58;;;;;;;;;;4898926;29;20055;-59
2022/12/17 21:07:43;;;;;;;41.88;19.67;;;;;;;;;;4882736;29;20036;-59
2022/12/17 21:10:10;;;;;;;38.30;19.48;;;;;;;;;;4899216;29;20455;-61
2022/12/17 21:15:21;;;;;;;42.75;19.15;;;;;;;;;;4898726;29;20387;-60
2022/12/17 21:17:48;;;;;;;38.33;18.17;;;;;;;;;;4899394;29;20052;-59
2022/12/17 21:20:14;;;;;;;42.72;19.77;;;;;;;;;;4899041;29;20052;-58
2022/12/17 21:22:41;;;;;;;37.72;17.90;;;;;;;;;;4898878;29;20053;-60
2022/12/17 21:25:08;;;;;;;45.03;20.70;;;;;;;;;;4898483;29;20478;-60
2022/12/17 21:27:34;;;;;;;41.22;18.85;;;;;;;;;;4899266;29;20044;-58
2022/12/17 21:30:01;;;;;;;39.13;19.38;;;;;;;;;;4882253;29;20563;-55
2022/12/17 21:32:34;;;;;;;40.35;19.08;;;;;;;;;;4883487;29;20044;-59
2022/12/17 21:35:00;;;;;;;41.65;20.90;;;;;;;;;;4898959;29;20426;-59
2022/12/17 21:37:28;;;;;;;41.67;19.25;;;;;;;;;;4881991;29;20045;-57
2022/12/17 21:39:55;;;;;;;43.88;20.02;;;;;;;;;;4898714;29;20054;-58
2022/12/17 21:45:10;;;;;;;40.42;19.02;;;;;;;;;;4898454;29;20048;-60
2022/12/17 21:47:37;;;;;;;43.97;20.70;;;;;;;;;;4881895;29;20048;-58
2022/12/17 21:50:03;;;;;;;44.40;20.92;;;;;;;;;;4899715;29;20056;-58
2022/12/17 21:52:30;;;;;;;49.20;21.50;;;;;;;;;;4899949;29;20048;-58
2022/12/17 21:54:56;;;;;;;40.67;20.27;;;;;;;;;;4899482;29;20104;-58
2022/12/17 21:57:23;;;;;;;42.47;20.75;;;;;;;;;;4882939;29;20100;-58
2022/12/17 21:59:49;;;;;;;45.30;21.13;;;;;;;;;;4899452;29;20482;-57
2022/12/17 22:02:16;;;;;;;42.95;20.23;;;;;;;;;;4899426;29;20049;-57
2022/12/17 22:04:43;;;;;;;39.03;21.15;;;;;;;;;;4899511;29;20107;-57
2022/12/17 22:07:10;;;;;;;47.47;22.15;;;;;;;;;;4899063;29;20050;-58
2022/12/17 22:09:55;;;;;;;50.85;21.08;;;;;;;;;;4899519;29;20045;-58
2022/12/17 22:15:27;;;;;;;47.90;21.88;;;;;;;;;;4898973;29;20198;-57
2022/12/17 22:17:56;;;;;;;45.65;20.33;;;;;;;;;;4899498;29;20051;-57
2022/12/17 22:20:23;;;;;;;47.03;22.70;;;;;;;;;;4899928;29;20123;-58
2022/12/17 22:22:50;;;;;;;38.97;19.50;;;;;;;;;;4900876;29;20044;-58
2022/12/17 22:25:17;;;;;;;38.72;21.05;;;;;;;;;;4897972;29;20052;-56
2022/12/17 22:27:43;;;;;;;43.05;19.92;;;;;;;;;;4898002;29;20076;-58
2022/12/17 22:33:01;;;;;;;41.60;20.05;;;;;;;;;;4897706;29;20472;-58
2022/12/17 22:35:36;;;;;;;43.85;20.58;;;;;;;;;;4897124;29;20033;-58
2022/12/17 22:38:23;;;;;;;44.72;20.92;;;;;;;;;;4897627;29;20068;-58
2022/12/17 22:43:28;;;;;;;42.80;20.08;;;;;;;;;;4897753;29;20076;-57
2022/12/17 22:44:16;;;;;;;41.10;20.10;;;;;;;;;;4897693;29;20041;-58
2022/12/17 22:47:04;;;;;;;40.17;18.17;;;;;;;;;;4896957;29;20075;-58
2022/12/17 22:49:30;;;;;;;37.85;19.33;;;;;;;;;;4881129;29;20040;-58
2022/12/17 22:51:56;;;;;;;42.45;19.92;;;;;;;;;;4897464;29;20514;-56
2022/12/17 22:54:23;;;;;;;37.88;18.85;;;;;;;;;;4897343;29;20051;-58
2022/12/17 22:56:50;;;;;;;46.15;18.85;;;;;;;;;;4896879;29;20120;-58
2022/12/17 22:59:36;;;;;;;38.13;20.35;;;;;;;;;;4897353;29;20087;-59
2022/12/17 23:02:02;;;;;;;45.17;20.52;;;;;;;;;;4897158;29;20088;-59
2022/12/17 23:04:29;;;;;;;41.08;18.95;;;;;;;;;;4897578;29;20045;-58
2022/12/17 23:06:55;;;;;;;36.58;18.33;;;;;;;;;;4896766;29;20593;-57
2022/12/17 23:09:22;;;;;;;41.85;19.50;;;;;;;;;;4880804;29;20484;-58
2022/12/17 23:11:49;;;;;;;37.95;18.02;;;;;;;;;;4897495;29;20048;-58
2022/12/17 23:14:16;;;;;;;37.80;18.05;;;;;;;;;;4897707;29;20405;-59
2022/12/17 23:16:42;;;;;;;36.78;18.67;;;;;;;;;;4880214;29;20048;-59
2022/12/17 23:19:08;;;;;;;34.42;17.77;;;;;;;;;;4897170;29;20048;-59
2022/12/17 23:21:35;;;;;;;39.35;18.40;;;;;;;;;;4897343;29;20060;-59
2022/12/17 23:24:01;;;;;;;42.65;18.75;;;;;;;;;;4897696;29;20502;-59
2022/12/17 23:26:30;;;;;;;44.33;20.30;;;;;;;;;;4880174;29;20049;-58
2022/12/17 23:28:57;;;;;;;37.50;18.83;;;;;;;;;;4897486;29;20041;-58
2022/12/17 23:31:24;;;;;;;38.92;18.23;;;;;;;;;;4897321;29;20498;-58
2022/12/17 23:33:50;;;;;;;35.83;16.45;;;;;;;;;;4881316;29;20052;-59
2022/12/17 23:36:18;;;;;;;36.75;17.45;;;;;;;;;;4897386;29;20048;-59
2022/12/17 23:38:45;;;;;;;34.78;16.77;;;;;;;;;;4897076;29;20100;-59
2022/12/17 23:41:22;;;;;;;34.22;16.98;;;;;;;;;;4880200;29;20084;-59
2022/12/17 23:43:48;;;;;;;34.60;16.30;;;;;;;;;;4897246;29;20048;-59
2022/12/17 23:46:15;;;;;;;35.05;16.23;;;;;;;;;;4896359;29;20037;-59
2022/12/17 23:48:42;;;;;;;36.08;16.98;;;;;;;;;;4896778;29;20100;-59
2022/12/17 23:51:12;;;;;;;32.10;16.08;;;;;;;;;;4896779;29;20100;-58
2022/12/17 23:53:39;;;;;;;34.30;15.90;;;;;;;;;;4896890;29;20044;-59
2022/12/17 23:56:06;;;;;;;33.50;16.40;;;;;;;;;;4896554;29;20513;-58
2022/12/17 23:58:33;;;;;;;35.08;16.02;;;;;;;;;;4896795;29;20049;-59
